Latest Weather Observations for Arlington Reef

IDQ60801

Issued at 11:32 pm EST Tuesday 26 May 2015 (issued every 30 minutes, with the page automatically refreshed every 10 minutes)

About weather observations | Map of weather stations | Latest weather observations for QLD | Other Formats
Station Details ID: 200879 Name: ARLINGTON REEF Lat: -16.72 Lon: 146.11 Height: 0.0 m
Data from the previous 72 hours. | See also: Recent months at Arlington Reef
Date/Time
EST
Temp
°C
App
Temp
°C
Dew
Point
Rel
Hum
%
Delta-T
°C
Wind Press
QNH
hPa
Press
MSL
hPa
Rain
since 9 am
mm
Dir
 
Spd
km/h
Gust
km/h
Spd
kts
Gust
kts
26/11:30pm - - - - - SSE 41 54 22 29 1018.4 1018.4 -
26/11:00pm - - - - - SE 37 43 20 23 1018.6 1018.6 -
26/10:30pm - - - - - SE 43 50 23 27 1018.6 1018.6 -
26/10:00pm - - - - - SE 24 43 13 23 1018.9 1018.9 -
26/09:30pm - - - - - SSE 32 41 17 22 1018.9 1018.9 -
26/09:00pm - - - - - SSE 32 46 17 25 1019.0 1019.0 -
26/08:30pm - - - - - SE 35 43 19 23 1018.7 1018.7 -
26/08:00pm - - - - - SE 37 43 20 23 1018.5 1018.5 -
26/07:30pm - - - - - SE 37 44 20 24 1018.3 1018.3 -
26/07:00pm - - - - - SE 37 43 20 23 1018.2 1018.2 -
26/06:30pm - - - - - SE 35 41 19 22 1018.0 1018.0 -
26/06:00pm - - - - - SE 37 43 20 23 1017.7 1017.7 -
26/05:30pm - - - - - SE 39 44 21 24 1017.5 1017.5 -
26/05:00pm - - - - - SE 39 44 21 24 1017.2 1017.2 -
26/04:30pm - - - - - SE 37 43 20 23 1017.2 1017.2 -
26/04:00pm - - - - - SE 37 43 20 23 1017.2 1017.2 -
26/03:30pm - - - - - SE 39 43 21 23 1017.0 1017.0 -
26/03:00pm - - - - - SE 37 43 20 23 1017.2 1017.2 -
26/02:30pm - - - - - SE 35 43 19 23 1017.3 1017.3 -
26/02:00pm - - - - - SE 35 43 19 23 1017.5 1017.5 -
26/01:30pm - - - - - SSE 33 43 18 23 1017.9 1017.9 -
26/01:00pm - - - - - SSE 35 39 19 21 1018.6 1018.6 -
26/12:30pm - - - - - SSE 37 43 20 23 1018.9 1018.9 -
26/12:00pm - - - - - SSE 37 44 20 24 1019.3 1019.3 -
26/11:30am - - - - - SSE 37 43 20 23 1019.8 1019.8 -
26/11:00am - - - - - SE 39 44 21 24 1020.1 1020.1 -
26/10:30am - - - - - SE 37 41 20 22 1020.6 1020.6 -
26/10:00am - - - - - SE 39 44 21 24 1020.7 1020.7 -
26/09:30am - - - - - SSE 39 43 21 23 1020.7 1020.7 -
26/09:00am - - - - - SE 37 44 20 24 1020.7 1020.7 -
26/08:30am - - - - - SE 39 46 21 25 1020.2 1020.2 -
26/08:00am - - - - - SE 39 44 21 24 1020.1 1020.1 -
26/07:30am - - - - - SE 43 48 23 26 1019.7 1019.7 -
26/07:00am - - - - - SE 39 46 21 25 1019.6 1019.6 -
26/06:30am - - - - - SE 35 43 19 23 1019.6 1019.6 -
26/06:00am - - - - - SE 37 43 20 23 1019.6 1019.6 -
26/05:30am - - - - - SE 35 43 19 23 1019.3 1019.3 -
26/05:00am - - - - - SE 37 44 20 24 1019.0 1019.0 -
26/04:30am - - - - - SE 37 43 20 23 1018.7 1018.7 -
26/04:00am - - - - - SE 37 43 20 23 1018.7 1018.7 -
26/03:30am - - - - - SE 35 44 19 24 1019.0 1019.0 -
26/03:00am - - - - - SE 37 43 20 23 1019.2 1019.2 -
26/02:30am - - - - - SE 35 43 19 23 1019.4 1019.4 -
26/02:00am - - - - - SE 37 43 20 23 1019.8 1019.8 -
26/01:30am - - - - - SE 35 41 19 22 1020.0 1020.0 -
26/01:00am - - - - - SE 37 43 20 23 1020.1 1020.1 -
26/12:30am - - - - - SE 37 44 20 24 1020.2 1020.2 -
26/12:00am - - - - - SE 39 46 21 25 1020.3 1020.3 -
 
Date/Time
EST
Temp
°C
App
Temp
°C
Dew
Point
Rel
Hum
%
Delta-T
°C
Wind Press
QNH
hPa
Press
MSL
hPa
Rain
since 9 am
mm
Dir
 
Spd
km/h
Gust
km/h
Spd
kts
Gust
kts
25/11:30pm - - - - - SE 39 46 21 25 1020.3 1020.3 -
25/11:00pm - - - - - SE 41 50 22 27 1020.5 1020.5 -
25/10:30pm - - - - - SE 41 48 22 26 1020.8 1020.8 -
25/10:00pm - - - - - SE 43 50 23 27 1020.7 1020.7 -
25/09:30pm - - - - - SE 39 48 21 26 1020.9 1020.9 -
25/09:00pm - - - - - SE 41 50 22 27 1020.5 1020.5 -
25/08:30pm - - - - - SE 39 46 21 25 1020.3 1020.3 -
25/08:00pm - - - - - SE 44 52 24 28 1019.9 1019.9 -
25/07:30pm - - - - - SE 43 50 23 27 1019.6 1019.6 -
25/07:00pm - - - - - SE 41 48 22 26 1019.4 1019.4 -
25/06:30pm - - - - - SSE 35 50 19 27 1019.0 1019.0 -
25/06:00pm - - - - - SSE 41 46 22 25 1018.7 1018.7 -
25/05:30pm - - - - - SSE 39 46 21 25 1018.7 1018.7 -
25/05:00pm - - - - - SSE 39 46 21 25 1018.7 1018.7 -
25/04:30pm - - - - - SE 43 50 23 27 1018.5 1018.5 -
25/04:00pm - - - - - SE 41 48 22 26 1018.4 1018.4 -
25/03:30pm - - - - - SE 39 48 21 26 1018.4 1018.4 -
25/03:00pm - - - - - SE 41 48 22 26 1018.6 1018.6 -
25/02:30pm - - - - - SE 39 46 21 25 1018.7 1018.7 -
25/02:00pm - - - - - SE 41 50 22 27 1018.8 1018.8 -
25/01:30pm - - - - - SE 37 46 20 25 1019.1 1019.1 -
25/01:00pm - - - - - SSE 35 52 19 28 1019.6 1019.6 -
25/12:30pm - - - - - SSE 37 44 20 24 1020.1 1020.1 -
25/12:00pm - - - - - SSE 41 46 22 25 1020.5 1020.5 -
25/11:30am - - - - - SE 35 41 19 22 1021.0 1021.0 -
25/11:00am - - - - - SSE 41 50 22 27 1021.2 1021.2 -
25/10:30am - - - - - SSE 43 50 23 27 1021.3 1021.3 -
25/10:00am - - - - - SSE 43 50 23 27 1021.3 1021.3 -
25/09:30am - - - - - SE 44 54 24 29 1021.2 1021.2 -
25/09:00am - - - - - SE 43 52 23 28 1021.1 1021.1 -
25/08:30am - - - - - SE 43 50 23 27 1020.9 1020.9 -
25/08:00am - - - - - SE 44 56 24 30 1020.4 1020.4 -
25/07:30am - - - - - SE 46 54 25 29 1020.0 1020.0 -
25/07:00am - - - - - SE 46 54 25 29 1019.7 1019.7 -
25/06:30am - - - - - SE 44 54 24 29 1019.4 1019.4 -
25/06:00am - - - - - SE 44 52 24 28 1018.9 1018.9 -
25/05:30am - - - - - ESE 44 52 24 28 1018.6 1018.6 -
25/05:00am - - - - - SE 44 52 24 28 1018.5 1018.5 -
25/04:30am - - - - - ESE 44 52 24 28 1018.3 1018.3 -
25/04:00am - - - - - ESE 44 52 24 28 1018.3 1018.3 -
25/03:30am - - - - - ESE 44 52 24 28 1018.3 1018.3 -
25/03:00am - - - - - ESE 43 50 23 27 1018.4 1018.4 -
25/02:30am - - - - - ESE 44 52 24 28 1018.5 1018.5 -
25/02:00am - - - - - ESE 43 52 23 28 1018.8 1018.8 -
25/01:30am - - - - - ESE 37 46 20 25 1019.1 1019.1 -
25/01:00am - - - - - ESE 39 44 21 24 1019.2 1019.2 -
25/12:30am - - - - - ESE 39 46 21 25 1019.3 1019.3 -
25/12:00am - - - - - ESE 26 32 14 17 1019.6 1019.6 -
 
Date/Time
EST
Temp
°C
App
Temp
°C
Dew
Point
Rel
Hum
%
Delta-T
°C
Wind Press
QNH
hPa
Press
MSL
hPa
Rain
since 9 am
mm
Dir
 
Spd
km/h
Gust
km/h
Spd
kts
Gust
kts
24/11:30pm - - - - - SE 24 30 13 16 1019.8 1019.8 -
24/11:00pm - - - - - SE 28 35 15 19 1019.7 1019.7 -
24/10:30pm - - - - - SSE 28 33 15 18 1019.8 1019.8 -
24/10:00pm - - - - - SSE 32 39 17 21 1019.6 1019.6 -
24/09:30pm - - - - - SSE 32 37 17 20 1019.7 1019.7 -
24/09:00pm - - - - - SSE 35 43 19 23 1019.5 1019.5 -
24/08:30pm - - - - - SSE 35 41 19 22 1019.5 1019.5 -
24/08:00pm - - - - - SSE 37 43 20 23 1019.2 1019.2 -
24/07:30pm - - - - - SSE 39 46 21 25 1019.0 1019.0 -
24/07:00pm - - - - - SSE 37 44 20 24 1018.5 1018.5 -
24/06:30pm - - - - - S 37 44 20 24 1018.4 1018.4 -
24/06:00pm - - - - - S 43 48 23 26 1018.1 1018.1 -
24/05:30pm - - - - - S 41 48 22 26 1018.2 1018.2 -
24/05:00pm - - - - - S 41 46 22 25 1017.8 1017.8 -
24/04:30pm - - - - - S 39 46 21 25 1017.6 1017.6 -
24/04:00pm - - - - - S 41 48 22 26 1017.2 1017.2 -
24/03:30pm - - - - - S 41 48 22 26 1017.0 1017.0 -
24/03:00pm - - - - - S 43 50 23 27 1016.7 1016.7 -
24/02:30pm - - - - - S 43 50 23 27 1016.9 1016.9 -
24/02:00pm - - - - - S 41 48 22 26 1017.0 1017.0 -
24/01:30pm - - - - - S 41 48 22 26 1017.0 1017.0 -
24/01:00pm - - - - - SSE 41 50 22 27 1017.7 1017.7 -
24/12:30pm - - - - - S 43 50 23 27 1017.8 1017.8 -
24/12:00pm - - - - - S 43 50 23 27 1018.4 1018.4 -
24/11:30am - - - - - S 39 46 21 25 1018.8 1018.8 -
24/11:00am - - - - - S 39 46 21 25 1018.8 1018.8 -
24/10:41am - - - - - S 35 44 19 24 1019.1 1019.1 -
24/10:30am - - - - - SSE 37 44 20 24 1019.4 1019.4 -
24/10:00am - - - - - SE 37 48 20 26 1019.5 1019.5 -
24/09:30am - - - - - SE 39 44 21 24 1019.6 1019.6 -
24/09:00am - - - - - SE 39 46 21 25 1019.5 1019.5 -
24/08:30am - - - - - SE 41 46 22 25 1019.0 1019.0 -
24/08:00am - - - - - SSE 37 46 20 25 1018.7 1018.7 -
24/07:59am - - - - - SSE 37 46 20 25 1018.6 1018.6 -
24/07:30am - - - - - S 39 44 21 24 1018.2 1018.2 -
24/07:00am - - - - - S 35 43 19 23 1018.1 1018.1 -
24/06:30am - - - - - S 39 44 21 24 1017.7 1017.7 -
24/06:00am - - - - - SSE 39 46 21 25 1017.6 1017.6 -
24/05:30am - - - - - SSE 39 46 21 25 1017.3 1017.3 -
24/05:00am - - - - - SSE 39 46 21 25 1017.2 1017.2 -
24/04:30am - - - - - SSE 41 48 22 26 1017.0 1017.0 -
24/04:00am - - - - - SSE 41 50 22 27 1017.0 1017.0 -
24/03:30am - - - - - SSE 41 50 22 27 1017.0 1017.0 -
24/03:00am - - - - - SE 41 48 22 26 1017.2 1017.2 -
24/02:30am - - - - - SSE 37 46 20 25 1017.3 1017.3 -
24/02:00am - - - - - SSE 37 44 20 24 1017.5 1017.5 -
24/01:30am - - - - - SSE 37 46 20 25 1017.6 1017.6 -
24/01:00am - - - - - SSE 37 46 20 25 1017.8 1017.8 -
24/12:30am - - - - - SSE 39 44 21 24 1017.8 1017.8 -
24/12:00am - - - - - SSE 37 46 20 25 1018.0 1018.0 -

Other Formats:

Comma delimited format used in spreadsheet applications
http://www.bom.gov.au/fwo/IDQ60801/IDQ60801.94284.axf

JavaScript Object Notation format (JSON) in row-major order
http://www.bom.gov.au/fwo/IDQ60801/IDQ60801.94284.json